Time;durP1;ratioP1;P1;durP2;ratioP2;P2;SDS_P1;SDS_P2;PMS_P1;PMS_P2;Temp;Humidity;BMP_temperature;BMP_pressure;BME280_temperature;BME280_humidity;BME280_pressure;Samples;Min_cycle;Max_cycle;Signal;HPM_P1;HPM_P2
2022/01/05 00:02:09;;;;;;;4.28;1.90;;;;;;;14.53;62.80;96222.53;5092099;28;20051;-32
2022/01/05 00:04:35;;;;;;;3.95;1.73;;;;;;;14.70;62.18;96220.22;5092033;28;20051;-32
2022/01/05 00:07:02;;;;;;;7.53;2.17;;;;;;;14.64;62.27;96217.34;5091876;28;20466;-33
2022/01/05 00:09:28;;;;;;;4.32;1.90;;;;;;;14.61;62.56;96220.22;5091861;28;20036;-32
2022/01/05 00:11:53;;;;;;;3.90;2.03;;;;;;;14.73;61.89;96209.13;5091997;28;20032;-32
2022/01/05 00:14:18;;;;;;;4.38;1.65;;;;;;;14.65;62.21;96209.91;5092012;28;20039;-34
2022/01/05 00:16:44;;;;;;;4.97;2.10;;;;;;;14.60;62.33;96214.00;5090316;28;20032;-32
2022/01/05 00:19:10;;;;;;;6.90;2.13;;;;;;;14.37;63.06;96207.19;5091818;28;20036;-32
2022/01/05 00:21:36;;;;;;;6.72;1.98;;;;;;;14.12;64.10;96206.75;5091433;28;20027;-32
2022/01/05 00:24:01;;;;;;;3.28;1.70;;;;;;;14.18;63.87;96204.94;5091358;28;20027;-32
2022/01/05 00:26:27;;;;;;;7.53;2.13;;;;;;;14.60;62.51;96208.56;5091668;28;20032;-33
2022/01/05 00:28:54;;;;;;;6.35;2.13;;;;;;;14.71;61.91;96203.38;5091597;28;20032;-33
2022/01/05 00:31:19;;;;;;;6.60;1.92;;;;;;;14.91;61.43;96208.34;5091504;28;20107;-32
2022/01/05 00:33:45;;;;;;;4.60;1.90;;;;;;;14.91;61.49;96202.13;5091347;28;20120;-32
2022/01/05 00:36:10;;;;;;;5.00;1.90;;;;;;;14.96;61.23;96206.97;5091689;28;20031;-32
2022/01/05 00:38:36;;;;;;;5.85;1.98;;;;;;;14.87;61.36;96205.00;5090243;28;20024;-32
2022/01/05 00:41:02;;;;;;;4.97;2.10;;;;;;;14.93;61.39;96195.00;5091565;28;20351;-32
2022/01/05 00:43:27;;;;;;;6.05;2.17;;;;;;;14.80;61.71;96196.38;5089715;28;20034;-33
2022/01/05 00:45:53;;;;;;;5.93;2.00;;;;;;;14.74;62.14;96199.72;5091342;28;20115;-32
2022/01/05 00:48:18;;;;;;;4.22;2.08;;;;;;;14.45;63.19;96188.59;5091508;28;20048;-32
2022/01/05 00:50:44;;;;;;;4.65;2.25;;;;;;;14.32;63.63;96190.69;5091278;28;20055;-32
2022/01/05 00:53:10;;;;;;;6.10;2.03;;;;;;;14.65;62.53;96177.91;5091094;28;20044;-32
2022/01/05 00:55:35;;;;;;;4.88;1.85;;;;;;;14.68;62.32;96181.72;5091305;28;20035;-33
2022/01/05 00:58:01;;;;;;;5.70;2.00;;;;;;;14.48;63.34;96173.25;5091117;28;20028;-32
2022/01/05 01:00:26;;;;;;;7.25;2.00;;;;;;;14.62;62.42;96165.19;5091344;28;20099;-33
2022/01/05 01:02:52;;;;;;;7.15;1.90;;;;;;;14.67;62.50;96161.84;5091352;28;20081;-32
2022/01/05 01:05:17;;;;;;;6.68;2.13;;;;;;;14.89;61.74;96160.88;5090972;28;20032;-32
2022/01/05 01:07:44;;;;;;;4.53;1.58;;;;;;;14.64;62.45;96156.53;5091022;28;20036;-32
2022/01/05 01:10:10;;;;;;;6.47;1.90;;;;;;;14.76;61.97;96163.03;5090951;28;20028;-33
2022/01/05 01:12:35;;;;;;;8.02;1.70;;;;;;;14.67;62.23;96156.38;5089490;28;20016;-32
2022/01/05 01:15:07;;;;;;;5.53;1.83;;;;;;;14.54;62.86;96155.81;5090892;28;20486;-33
2022/01/05 01:17:33;;;;;;;4.53;1.58;;;;;;;14.50;62.75;96151.72;5090894;28;20712;-33
2022/01/05 01:19:58;;;;;;;5.85;2.13;;;;;;;14.49;62.84;96139.28;5090616;28;20023;-32
2022/01/05 01:22:26;;;;;;;6.05;2.05;;;;;;;14.81;61.83;96154.22;5090626;28;20020;-33
2022/01/05 01:24:51;;;;;;;2.92;1.30;;;;;;;14.76;61.77;96144.69;5090814;28;20028;-32
2022/01/05 01:27:17;;;;;;;5.03;1.88;;;;;;;14.60;62.38;96142.28;5090340;28;20393;-32
2022/01/05 01:29:42;;;;;;;6.90;2.10;;;;;;;14.76;61.78;96139.22;5085615;28;20462;-32
2022/01/05 01:32:07;;;;;;;5.90;2.25;;;;;;;14.65;62.31;96147.91;5092770;28;20078;-32
2022/01/05 01:34:33;;;;;;;5.80;2.00;;;;;;;14.85;61.52;96141.16;5092928;28;20069;-32
2022/01/05 01:36:58;;;;;;;4.35;1.80;;;;;;;14.92;61.20;96141.59;5096037;28;20466;-32
2022/01/05 01:39:24;;;;;;;5.30;1.73;;;;;;;15.00;61.05;96144.72;5096823;28;20022;-32
2022/01/05 01:41:49;;;;;;;4.82;1.40;;;;;;;15.01;60.83;96133.34;5096647;28;20024;-32
2022/01/05 01:44:16;;;;;;;5.63;1.70;;;;;;;14.96;61.17;96130.50;5096777;28;20390;-32
2022/01/05 01:46:42;;;;;;;6.32;1.80;;;;;;;14.83;61.56;96127.97;5096686;28;20030;-33
2022/01/05 01:49:08;;;;;;;2.45;1.58;;;;;;;14.89;61.44;96139.78;5096652;28;20095;-32
2022/01/05 01:51:33;;;;;;;4.50;1.55;;;;;;;14.94;61.23;96141.13;5096397;28;20024;-32
2022/01/05 01:53:59;;;;;;;3.33;1.55;;;;;;;14.90;61.27;96127.63;5096381;28;20044;-32
2022/01/05 01:56:25;;;;;;;5.63;1.70;;;;;;;14.81;61.88;96129.66;5096450;28;20016;-32
2022/01/05 01:58:51;;;;;;;5.88;1.70;;;;;;;14.92;61.40;96121.72;5096467;28;20020;-32
2022/01/05 02:01:17;;;;;;;3.85;1.60;;;;;;;14.86;61.56;96120.81;5096287;28;20466;-32
2022/01/05 02:03:43;;;;;;;4.13;1.40;;;;;;;14.97;61.21;96112.88;5095062;28;20034;-32
2022/01/05 02:06:09;;;;;;;4.60;1.73;;;;;;;14.69;61.98;96115.75;5096378;28;20058;-32
2022/01/05 02:08:34;;;;;;;4.13;1.45;;;;;;;14.85;61.53;96108.38;5096161;28;20028;-33
2022/01/05 02:11:01;;;;;;;2.92;1.30;;;;;;;14.95;61.30;96105.19;5094819;28;20089;-33
2022/01/05 02:13:26;;;;;;;3.90;1.40;;;;;;;14.84;61.71;96101.41;5096560;28;20022;-32
2022/01/05 02:15:52;;;;;;;6.15;1.92;;;;;;;14.57;62.59;96097.59;5096180;28;20381;-32
2022/01/05 02:20:49;;;;;;;4.50;1.60;;;;;;;14.68;62.61;96086.19;5096193;28;20016;-32
2022/01/05 02:23:15;;;;;;;6.05;1.92;;;;;;;14.70;62.25;96087.25;5096056;28;20024;-33
2022/01/05 02:25:41;;;;;;;7.30;1.85;;;;;;;14.54;62.80;96098.50;5095978;28;20024;-32
2022/01/05 02:28:06;;;;;;;5.15;1.80;;;;;;;14.68;62.39;96084.22;5095769;28;20016;-33
2022/01/05 02:30:32;;;;;;;7.57;1.70;;;;;;;14.10;64.63;96081.75;5095823;28;20024;-32
2022/01/05 02:32:58;;;;;;;5.05;1.80;;;;;;;14.50;63.37;96076.09;5095857;28;20020;-32
2022/01/05 02:35:24;;;;;;;2.78;1.40;;;;;;;14.40;63.66;96077.34;5095961;28;20020;-33
2022/01/05 02:37:53;;;;;;;3.92;1.70;;;;;;;14.61;63.12;96081.78;5096257;28;20363;-32
2022/01/05 02:40:21;;;;;;;5.18;1.77;;;;;;;14.66;62.84;96062.06;5095644;28;20020;-32
2022/01/05 02:42:47;;;;;;;5.40;1.80;;;;;;;14.49;63.51;96055.47;5095673;28;20049;-32
2022/01/05 02:45:14;;;;;;;3.30;1.50;;;;;;;14.41;63.97;96057.03;5095530;28;20034;-32
2022/01/05 02:47:40;;;;;;;5.38;1.55;;;;;;;14.38;64.17;96044.25;5094891;28;20028;-32
2022/01/05 02:50:08;;;;;;;4.38;1.60;;;;;;;14.59;63.14;96056.94;5095247;28;20024;-32
2022/01/05 02:52:34;;;;;;;7.45;2.22;;;;;;;13.98;64.99;96050.72;5095275;28;20047;-32
2022/01/05 02:55:02;;;;;;;6.32;1.65;;;;;;;14.15;64.86;96039.50;5095356;28;20032;-32
2022/01/05 02:57:27;;;;;;;3.85;1.40;;;;;;;14.43;63.93;96043.69;5095439;28;20032;-32
2022/01/05 02:59:54;;;;;;;5.53;2.03;;;;;;;14.55;63.53;96037.25;5095250;28;20577;-32
2022/01/05 03:02:20;;;;;;;6.80;1.98;;;;;;;14.05;65.18;96033.31;5095211;28;20020;-32
2022/01/05 03:04:45;;;;;;;6.38;2.28;;;;;;;14.15;65.19;96023.13;5095132;28;20355;-32
2022/01/05 03:07:11;;;;;;;5.55;1.80;;;;;;;14.22;64.76;96009.91;5095137;28;20043;-32
2022/01/05 03:09:36;;;;;;;5.18;1.70;;;;;;;14.46;64.03;96017.47;5095187;28;20024;-32
2022/01/05 03:12:02;;;;;;;5.03;1.70;;;;;;;14.57;63.36;96023.91;5094865;28;20024;-32
2022/01/05 03:14:27;;;;;;;3.75;1.48;;;;;;;14.02;65.47;96004.22;5094931;28;20024;-32
2022/01/05 03:16:53;;;;;;;6.75;2.10;;;;;;;13.88;65.73;96016.53;5094886;28;20016;-33
2022/01/05 03:19:18;;;;;;;6.15;1.85;;;;;;;13.87;65.93;96008.81;5094958;28;20035;-32
2022/01/05 03:21:44;;;;;;;5.75;2.08;;;;;;;14.20;64.58;96008.88;5095165;28;20488;-32
2022/01/05 03:24:09;;;;;;;4.05;1.80;;;;;;;14.22;64.61;96006.44;5094727;28;20032;-32
2022/01/05 03:26:35;;;;;;;4.18;1.73;;;;;;;14.39;64.01;96002.13;5094660;28;20127;-32
2022/01/05 03:29:00;;;;;;;5.22;1.70;;;;;;;14.45;63.56;96000.31;5093374;28;20071;-32
2022/01/05 03:31:26;;;;;;;5.00;1.75;;;;;;;14.51;63.28;95984.81;5073885;28;20036;-33
2022/01/05 03:33:51;;;;;;;5.22;1.70;;;;;;;14.41;63.67;96002.47;5087156;28;20035;-32
2022/01/05 03:36:16;;;;;;;4.78;1.85;;;;;;;14.08;64.70;95991.50;5094857;28;20466;-32
2022/01/05 03:38:42;;;;;;;4.82;1.92;;;;;;;13.71;65.99;95990.84;5094510;28;20028;-32
2022/01/05 03:41:08;;;;;;;2.88;1.50;;;;;;;14.20;64.59;95970.69;5094548;28;20016;-32
2022/01/05 03:43:33;;;;;;;4.75;1.80;;;;;;;14.42;63.64;95981.38;5094377;28;20498;-32
2022/01/05 03:45:59;;;;;;;4.90;1.92;;;;;;;13.90;65.46;95970.50;5094309;28;20066;-32
2022/01/05 03:48:25;;;;;;;4.03;1.90;;;;;;;14.27;64.23;95970.34;5094319;28;20036;-32
2022/01/05 03:50:50;;;;;;;3.15;1.73;;;;;;;14.35;64.05;95972.28;5094502;28;20027;-32
2022/01/05 03:53:16;;;;;;;4.82;2.15;;;;;;;14.49;63.28;95964.66;5093984;28;20582;-32
2022/01/05 03:55:44;;;;;;;5.53;1.55;;;;;;;14.64;62.81;95974.44;5094223;28;20028;-32
2022/01/05 03:58:10;;;;;;;3.88;1.95;;;;;;;14.43;63.52;95972.75;5094158;28;20520;-32
2022/01/05 04:00:40;;;;;;;4.50;1.80;;;;;;;14.61;62.82;95972.63;5093187;28;20451;-32
2022/01/05 04:03:05;;;;;;;3.70;2.00;;;;;;;14.47;63.11;95967.84;5094139;28;20516;-33
2022/01/05 04:05:31;;;;;;;5.60;2.38;;;;;;;13.92;64.97;95970.78;5094131;28;20031;-32
2022/01/05 04:07:57;;;;;;;3.60;1.35;;;;;;;14.43;63.46;95961.84;5094343;28;20081;-33
2022/01/05 04:10:23;;;;;;;6.20;1.83;;;;;;;14.74;62.37;95961.50;5092619;28;20031;-32
2022/01/05 04:12:48;;;;;;;3.92;1.83;;;;;;;14.87;61.86;95980.38;5093892;28;20118;-32
2022/01/05 04:15:15;;;;;;;5.22;1.75;;;;;;;14.79;61.76;95966.31;5093921;28;20063;-32
2022/01/05 04:17:40;;;;;;;4.63;2.03;;;;;;;14.96;61.19;95977.59;5093807;28;20545;-32
2022/01/05 04:20:06;;;;;;;4.68;1.88;;;;;;;14.95;61.39;95973.34;5093875;28;20107;-32
2022/01/05 04:22:32;;;;;;;5.15;1.60;;;;;;;14.72;61.94;95966.66;5093778;28;20020;-32
2022/01/05 04:24:57;;;;;;;3.35;1.60;;;;;;;14.82;61.71;95962.66;5093783;28;20032;-32
2022/01/05 04:27:23;;;;;;;3.58;1.85;;;;;;;14.94;61.12;95971.84;5093770;28;20024;-32
2022/01/05 04:29:48;;;;;;;4.22;1.67;;;;;;;14.86;61.23;95957.00;5093676;28;20027;-32
2022/01/05 04:32:14;;;;;;;3.85;1.63;;;;;;;14.86;61.39;95954.28;5093771;28;20034;-32
2022/01/05 04:34:39;;;;;;;5.13;1.77;;;;;;;14.84;61.49;95948.53;5093642;28;20024;-32
2022/01/05 04:37:06;;;;;;;5.45;2.03;;;;;;;14.93;60.97;95945.75;5093566;28;20458;-32
2022/01/05 04:39:33;;;;;;;3.97;1.55;;;;;;;14.81;61.44;95942.06;5093505;28;20024;-32
2022/01/05 04:41:58;;;;;;;5.40;1.65;;;;;;;14.86;61.24;95935.19;5093621;28;20060;-32
2022/01/05 04:44:24;;;;;;;4.72;1.85;;;;;;;14.92;61.06;95934.09;5092534;28;20055;-32
2022/01/05 04:46:49;;;;;;;4.07;2.40;;;;;;;14.89;61.23;95931.53;5093448;28;20065;-32
2022/01/05 04:49:15;;;;;;;4.05;1.83;;;;;;;14.85;61.22;95925.47;5093490;28;20024;-32
2022/01/05 04:51:40;;;;;;;5.57;1.83;;;;;;;14.80;61.30;95923.41;5093283;28;20081;-33
2022/01/05 04:54:06;;;;;;;3.63;1.90;;;;;;;14.79;61.41;95917.19;5093318;28;20452;-33
2022/01/05 04:56:31;;;;;;;6.78;2.10;;;;;;;14.86;61.24;95910.59;5093122;28;20074;-32
2022/01/05 04:58:57;;;;;;;3.28;1.70;;;;;;;14.76;61.71;95914.63;5093337;28;20123;-32
2022/01/05 05:01:23;;;;;;;3.47;1.88;;;;;;;14.86;61.19;95905.91;5093272;28;20050;-32
2022/01/05 05:03:49;;;;;;;3.92;2.55;;;;;;;14.89;61.15;95909.69;5093248;28;20016;-32
2022/01/05 05:06:14;;;;;;;4.45;2.03;;;;;;;14.83;61.39;95900.63;5093381;28;20056;-32
2022/01/05 05:08:40;;;;;;;3.58;1.95;;;;;;;14.73;61.86;95908.13;5091776;28;20020;-32
2022/01/05 05:11:05;;;;;;;3.58;1.90;;;;;;;14.74;61.82;95898.72;5093646;28;20016;-32
2022/01/05 05:13:31;;;;;;;3.83;2.28;;;;;;;14.67;62.02;95913.47;5097347;28;20054;-32
2022/01/05 05:15:56;;;;;;;4.50;2.00;;;;;;;14.62;62.28;95907.91;5097396;28;20035;-33
2022/01/05 05:18:22;;;;;;;5.13;2.20;;;;;;;14.88;61.38;95895.28;5097404;28;20031;-32
2022/01/05 05:20:47;;;;;;;2.67;1.95;;;;;;;14.86;61.56;95891.50;5095955;28;20023;-32
2022/01/05 05:23:12;;;;;;;3.30;1.95;;;;;;;14.85;61.36;95884.53;5097033;28;20032;-33
2022/01/05 05:25:38;;;;;;;5.18;2.35;;;;;;;14.76;61.54;95885.34;5097164;28;20068;-34
2022/01/05 05:28:03;;;;;;;6.28;2.40;;;;;;;14.71;61.58;95873.09;5097004;28;20020;-32
2022/01/05 05:30:29;;;;;;;5.07;2.03;;;;;;;14.79;61.25;95875.50;5096927;28;20032;-32
2022/01/05 05:32:57;;;;;;;5.28;1.80;;;;;;;14.87;61.24;95880.13;5097310;28;20035;-32
2022/01/05 05:35:23;;;;;;;3.67;2.30;;;;;;;14.95;60.91;95880.53;5096945;28;20027;-32
2022/01/05 05:37:49;;;;;;;5.30;2.10;;;;;;;14.85;61.24;95877.09;5096863;28;20016;-32
2022/01/05 05:40:14;;;;;;;5.10;2.22;;;;;;;14.81;61.29;95873.06;5096793;28;20024;-32
2022/01/05 05:42:40;;;;;;;4.38;2.22;;;;;;;14.94;60.83;95868.84;5096907;28;20032;-33
2022/01/05 05:45:06;;;;;;;4.70;2.40;;;;;;;14.87;60.91;95868.44;5096801;28;20034;-32
2022/01/05 05:47:33;;;;;;;4.93;2.30;;;;;;;14.95;60.72;95870.34;5096941;28;20058;-32
2022/01/05 05:49:59;;;;;;;4.95;2.97;;;;;;;14.79;61.22;95861.84;5096892;28;20027;-32
2022/01/05 05:52:24;;;;;;;4.15;2.67;;;;;;;14.63;61.77;95887.56;5096168;28;20040;-34
2022/01/05 05:54:51;;;;;;;5.80;2.85;;;;;;;14.66;61.65;95864.81;5096596;28;20389;-33
2022/01/05 05:57:16;;;;;;;5.30;2.78;;;;;;;14.71;61.44;95864.91;5096785;28;20043;-32
2022/01/05 05:59:41;;;;;;;8.55;2.67;;;;;;;14.88;61.16;95869.94;5096639;28;20466;-32
2022/01/05 06:02:07;;;;;;;5.63;3.22;;;;;;;14.81;61.31;95865.63;5096319;28;20077;-32
2022/01/05 06:04:32;;;;;;;4.57;3.25;;;;;;;14.95;60.81;95864.13;5096643;28;20152;-32
2022/01/05 06:06:58;;;;;;;6.03;2.55;;;;;;;14.89;60.87;95866.00;5096281;28;20043;-32
2022/01/05 06:09:23;;;;;;;4.93;3.17;;;;;;;14.91;60.88;95860.81;5096562;28;20454;-32
2022/01/05 06:11:49;;;;;;;4.35;3.17;;;;;;;14.91;60.86;95858.09;5096181;28;20024;-32
2022/01/05 06:14:15;;;;;;;5.03;3.15;;;;;;;15.00;60.50;95849.81;5096270;28;20031;-32
2022/01/05 06:16:41;;;;;;;4.95;3.10;;;;;;;14.92;60.84;95843.97;5095993;28;20024;-32
2022/01/05 06:19:07;;;;;;;6.53;3.00;;;;;;;15.02;60.33;95842.66;5095940;28;20035;-32
2022/01/05 06:21:32;;;;;;;5.22;3.25;;;;;;;15.01;60.39;95838.44;5095859;28;20016;-33
2022/01/05 06:23:58;;;;;;;6.00;3.08;;;;;;;14.96;60.53;95830.16;5095446;28;20065;-32
2022/01/05 06:26:23;;;;;;;6.00;3.30;;;;;;;14.98;60.26;95835.88;5095675;28;20022;-32
2022/01/05 06:28:50;;;;;;;7.57;3.90;;;;;;;14.85;61.02;95832.66;5095958;28;20032;-32
2022/01/05 06:31:16;;;;;;;7.15;4.32;;;;;;;14.60;61.56;95834.69;5095807;28;20048;-32
2022/01/05 06:33:41;;;;;;;9.43;4.05;;;;;;;14.86;60.77;95831.44;5095809;28;20056;-32
2022/01/05 06:36:06;;;;;;;7.28;4.00;;;;;;;14.91;60.38;95819.88;5095752;28;20035;-32
2022/01/05 06:38:32;;;;;;;7.10;4.25;;;;;;;14.84;60.93;95831.16;5095876;28;20032;-32
2022/01/05 06:40:58;;;;;;;8.70;4.18;;;;;;;14.87;60.64;95827.47;5095810;28;20556;-32
2022/01/05 06:43:23;;;;;;;6.25;3.80;;;;;;;14.95;60.25;95823.94;5095569;28;20077;-32
2022/01/05 06:45:49;;;;;;;6.45;4.32;;;;;;;15.00;60.08;95812.34;5096019;28;20374;-32
2022/01/05 06:48:14;;;;;;;6.88;4.10;;;;;;;14.98;60.40;95820.25;5095512;28;20027;-32
2022/01/05 06:50:40;;;;;;;10.27;4.75;;;;;;;14.77;60.90;95829.53;5095575;28;20035;-32
2022/01/05 06:53:05;;;;;;;12.65;5.10;;;;;;;14.72;60.89;95830.94;5095421;28;20052;-32
2022/01/05 06:55:31;;;;;;;9.40;5.00;;;;;;;14.85;60.65;95817.03;5095559;28;20024;-33
2022/01/05 06:57:57;;;;;;;13.05;5.05;;;;;;;14.88;60.54;95831.72;5095325;28;20028;-33
2022/01/05 07:00:23;;;;;;;9.90;4.75;;;;;;;14.95;60.33;95825.91;5095195;28;20024;-32
2022/01/05 07:02:50;;;;;;;15.13;5.78;;;;;;;14.58;61.62;95812.59;5095111;28;20027;-32
2022/01/05 07:05:15;;;;;;;10.40;5.28;;;;;;;14.56;61.64;95812.28;5095507;28;20359;-32
2022/01/05 07:07:41;;;;;;;12.88;6.40;;;;;;;14.81;60.83;95813.00;5094443;28;20078;-32
2022/01/05 07:10:08;;;;;;;11.95;5.85;;;;;;;14.65;61.46;95809.47;5073475;28;20063;-32
2022/01/05 07:12:34;;;;;;;11.73;6.20;;;;;;;14.77;60.96;95799.53;5072940;28;20095;-32
2022/01/05 07:15:00;;;;;;;10.43;5.93;;;;;;;14.29;62.62;95809.72;5072782;28;20032;-32
2022/01/05 07:17:25;;;;;;;12.48;6.43;;;;;;;14.17;63.01;95835.25;5072938;28;20032;-32
2022/01/05 07:19:51;;;;;;;10.85;6.50;;;;;;;14.45;62.28;95806.63;5072486;28;20536;-32
2022/01/05 07:22:16;;;;;;;11.38;6.70;;;;;;;14.33;62.67;95810.31;5070761;28;20025;-33
2022/01/05 07:24:42;;;;;;;10.63;5.90;;;;;;;14.28;62.79;95806.25;5072587;28;20028;-32
2022/01/05 07:27:07;;;;;;;11.38;6.85;;;;;;;13.73;64.75;95808.53;5072629;28;20028;-32
2022/01/05 07:29:33;;;;;;;11.73;6.57;;;;;;;14.38;62.57;95806.94;5072725;28;20090;-33
2022/01/05 07:31:58;;;;;;;13.20;6.82;;;;;;;14.37;62.43;95799.97;5072243;28;20040;-32
2022/01/05 07:34:24;;;;;;;12.65;6.45;;;;;;;14.49;62.15;95799.00;5072180;28;20082;-32
2022/01/05 07:36:49;;;;;;;11.32;6.05;;;;;;;14.53;62.02;95813.22;5088998;28;20028;-33
2022/01/05 07:39:14;;;;;;;14.18;5.93;;;;;;;14.27;63.06;95787.63;5091035;28;20450;-32
2022/01/05 07:41:40;;;;;;;12.43;6.45;;;;;;;14.60;61.87;95801.94;5092473;28;20081;-32
2022/01/05 07:44:06;;;;;;;12.55;6.85;;;;;;;14.41;62.61;95797.84;5092284;28;20073;-32
2022/01/05 07:46:33;;;;;;;10.40;6.03;;;;;;;14.66;61.76;95797.34;5092308;28;20386;-32
2022/01/05 07:48:58;;;;;;;12.50;7.05;;;;;;;14.82;61.09;95801.63;5092429;28;20028;-32
2022/01/05 07:51:24;;;;;;;14.95;6.38;;;;;;;14.75;61.35;95791.03;5092332;28;20032;-33
2022/01/05 07:53:50;;;;;;;12.20;6.45;;;;;;;14.87;61.03;95781.06;5091942;28;20059;-32
2022/01/05 07:56:16;;;;;;;11.70;5.97;;;;;;;14.77;61.29;95796.03;5092143;28;20080;-32
2022/01/05 07:58:41;;;;;;;11.77;6.03;;;;;;;14.75;61.34;95801.97;5092235;28;20027;-32
2022/01/05 08:01:07;;;;;;;10.02;5.82;;;;;;;14.90;60.88;95799.25;5092240;28;20026;-32
2022/01/05 08:03:37;;;;;;;10.45;6.38;;;;;;;14.90;60.86;95801.97;5090615;28;20078;-32
2022/01/05 08:06:04;;;;;;;12.52;6.68;;;;;;;14.58;61.99;95809.09;5092132;28;20028;-32
2022/01/05 08:08:30;;;;;;;13.15;6.80;;;;;;;14.66;62.01;95826.59;5091650;28;20035;-32
2022/01/05 08:10:56;;;;;;;11.68;6.15;;;;;;;14.70;61.78;95795.19;5091932;28;20155;-33
2022/01/05 08:13:24;;;;;;;14.55;7.20;;;;;;;14.55;62.23;95805.31;5091774;28;20545;-32
2022/01/05 08:15:52;;;;;;;13.85;7.75;;;;;;;14.40;63.02;95796.34;5091839;28;20389;-32
2022/01/05 08:18:19;;;;;;;13.88;7.43;;;;;;;14.24;63.70;95797.47;5091789;28;20034;-32
2022/01/05 08:20:45;;;;;;;15.40;7.78;;;;;;;14.09;64.21;95795.94;5091657;28;20031;-32
2022/01/05 08:23:18;;;;;;;11.85;6.97;;;;;;;14.34;63.59;95795.47;5089898;28;20028;-32
2022/01/05 08:25:44;;;;;;;13.88;7.65;;;;;;;14.17;64.12;95788.91;5091853;28;20161;-33
2022/01/05 08:28:11;;;;;;;16.20;7.25;;;;;;;14.04;64.76;95786.41;5091789;28;20115;-32
2022/01/05 08:30:37;;;;;;;15.63;7.30;;;;;;;13.81;65.56;95804.28;5091739;28;20084;-32
2022/01/05 08:33:03;;;;;;;16.23;8.02;;;;;;;14.03;64.90;95799.28;5091421;28;20032;-32
2022/01/05 08:35:30;;;;;;;14.50;7.90;;;;;;;14.15;64.41;95788.63;5091567;28;20028;-32
2022/01/05 08:37:55;;;;;;;12.73;6.95;;;;;;;14.08;65.05;95789.72;5091472;28;20039;-32
2022/01/05 08:40:24;;;;;;;15.77;7.60;;;;;;;13.95;65.25;95800.88;5091463;28;20031;-32
2022/01/05 08:42:51;;;;;;;13.02;7.32;;;;;;;13.80;65.92;95800.03;5090376;28;20042;-32
2022/01/05 08:45:17;;;;;;;14.43;7.53;;;;;;;13.87;65.81;95796.19;5090575;28;20105;-34
2022/01/05 08:47:47;;;;;;;18.27;7.70;;;;;;;13.81;65.73;95807.00;5091544;28;20027;-32
2022/01/05 08:50:15;;;;;;;15.15;7.43;;;;;;;13.95;65.17;95795.41;5091279;28;20394;-33
2022/01/05 08:52:41;;;;;;;16.40;7.78;;;;;;;13.88;65.32;95803.16;5091292;28;20056;-32
2022/01/05 08:55:07;;;;;;;15.02;8.20;;;;;;;13.94;65.09;95804.03;5091320;28;20367;-32
2022/01/05 08:57:32;;;;;;;14.70;7.25;;;;;;;13.98;65.20;95801.88;5091076;28;20482;-32
2022/01/05 08:59:58;;;;;;;12.73;7.10;;;;;;;13.96;65.00;95832.34;5091257;28;20035;-32
2022/01/05 09:02:23;;;;;;;13.95;7.28;;;;;;;14.07;64.68;95796.41;5091302;28;20490;-32
2022/01/05 09:04:51;;;;;;;14.20;7.70;;;;;;;14.09;64.56;95810.31;5091222;28;20028;-32
2022/01/05 09:07:18;;;;;;;17.73;8.70;;;;;;;14.15;64.46;95803.00;5089830;28;20028;-33
2022/01/05 09:09:44;;;;;;;21.45;8.75;;;;;;;14.10;64.82;95800.16;5090927;28;20024;-31
2022/01/05 09:12:10;;;;;;;19.70;9.00;;;;;;;14.13;64.84;95804.69;5090873;28;20089;-32
2022/01/05 09:14:36;;;;;;;25.77;8.98;;;;;;;13.99;65.50;95801.44;5089603;28;20176;-32
2022/01/05 09:17:02;;;;;;;14.65;8.20;;;;;;;14.16;64.95;95803.75;5090120;28;20615;-33
2022/01/05 09:19:28;;;;;;;13.43;7.70;;;;;;;14.23;64.51;95815.06;5089484;28;20023;-32
2022/01/05 09:21:54;;;;;;;14.07;8.20;;;;;;;14.25;64.68;95804.44;5069003;28;20027;-32
2022/01/05 09:24:20;;;;;;;21.38;7.50;;;;;;;14.29;64.55;95799.56;5070807;28;20036;-32
2022/01/05 09:26:45;;;;;;;12.55;6.90;;;;;;;14.22;64.68;95805.38;5070922;28;20031;-32
2022/01/05 09:29:11;;;;;;;20.52;7.70;;;;;;;14.09;64.98;95793.97;5070669;28;20063;-32
2022/01/05 09:31:36;;;;;;;15.18;8.02;;;;;;;14.13;64.91;95797.25;5070603;28;20021;-32
2022/01/05 09:34:02;;;;;;;20.73;10.35;;;;;;;14.31;64.58;95816.22;5070682;28;20024;-32
2022/01/05 09:36:50;;;;;;;16.25;8.10;;;;;;;14.22;64.91;95790.97;5070788;28;20086;-32
2022/01/05 09:42:00;;;;;;;16.90;8.73;;;;;;;14.14;64.92;95789.81;5070751;28;20063;-32
2022/01/05 09:44:41;;;;;;;15.90;8.93;;;;;;;14.32;64.09;95797.91;5072237;28;20048;-32
2022/01/05 09:47:26;;;;;;;17.23;7.78;;;;;;;14.44;63.80;95779.81;5089696;28;20020;-32
2022/01/05 09:49:58;;;;;;;15.48;7.35;;;;;;;14.30;64.25;95792.16;5090571;28;20024;-32
2022/01/05 09:52:25;;;;;;;14.63;7.63;;;;;;;14.47;63.63;95778.84;5090775;28;20437;-32
2022/01/05 09:54:52;;;;;;;15.13;7.60;;;;;;;14.57;63.69;95786.50;5090832;28;20702;-32
2022/01/05 09:57:21;;;;;;;18.02;7.38;;;;;;;14.57;63.34;95785.75;5092324;28;20413;-32
2022/01/05 09:59:47;;;;;;;12.27;7.07;;;;;;;14.55;63.37;95802.59;5094404;28;20116;-32
2022/01/05 10:02:14;;;;;;;17.33;7.18;;;;;;;14.41;63.86;95783.47;5094585;28;20108;-31
2022/01/05 10:04:40;;;;;;;14.80;6.88;;;;;;;14.56;63.08;95806.84;5094562;28;20032;-31
2022/01/05 10:07:08;;;;;;;15.07;7.72;;;;;;;14.69;62.93;95793.69;5095475;28;20028;-32
2022/01/05 10:09:36;;;;;;;17.33;8.23;;;;;;;13.41;67.96;95787.50;5095634;28;20020;-31
2022/01/05 10:12:04;;;;;;;89.45;14.30;;;;;;;13.19;69.07;95788.47;5096198;28;20492;-32
2022/01/05 10:14:30;;;;;;;30.35;9.48;;;;;;;13.88;66.57;95751.38;5096476;28;20085;-32
2022/01/05 10:17:08;;;;;;;22.98;8.45;;;;;;;14.29;64.68;95757.91;5095660;28;20028;-31
2022/01/05 10:19:35;;;;;;;16.50;7.35;;;;;;;14.44;63.87;95744.34;5096190;28;20024;-31
2022/01/05 10:22:02;;;;;;;15.77;7.32;;;;;;;14.50;63.93;95751.38;5096111;28;20111;-31
2022/01/05 10:24:46;;;;;;;19.40;7.35;;;;;;;14.51;63.81;95747.44;5096086;28;20417;-31
2022/01/05 10:27:16;;;;;;;15.63;6.35;;;;;;;14.58;63.60;95746.34;5095951;28;20024;-32
2022/01/05 10:29:54;;;;;;;19.27;7.32;;;;;;;14.55;63.53;95725.44;5094660;28;20488;-31
2022/01/05 10:32:19;;;;;;;14.90;6.68;;;;;;;14.50;63.94;95721.38;5095825;28;20031;-31
2022/01/05 10:35:02;;;;;;;16.05;6.95;;;;;;;14.58;63.47;95719.81;5095786;28;20020;-31
2022/01/05 10:37:28;;;;;;;15.40;7.07;;;;;;;14.59;63.38;95707.63;5095795;28;20382;-31
2022/01/05 10:40:19;;;;;;;14.90;7.25;;;;;;;14.59;63.34;95712.34;5095582;28;20024;-31
2022/01/05 10:42:46;;;;;;;14.80;6.25;;;;;;;14.58;63.30;95716.31;5095501;28;20090;-31
2022/01/05 10:45:16;;;;;;;10.13;5.53;;;;;;;14.55;63.19;95685.25;5095427;28;20020;-32
2022/01/05 10:47:42;;;;;;;15.40;6.82;;;;;;;14.67;62.97;95694.41;5095280;28;20485;-31
2022/01/05 10:50:19;;;;;;;14.88;6.75;;;;;;;14.58;63.17;95699.94;5095518;28;20060;-31
2022/01/05 10:52:56;;;;;;;16.58;6.97;;;;;;;14.60;62.90;95681.88;5095303;28;20101;-31
2022/01/05 10:55:24;;;;;;;13.88;6.78;;;;;;;14.66;62.69;95682.72;5095485;28;20020;-31
2022/01/05 10:58:04;;;;;;;14.75;6.72;;;;;;;14.58;62.97;95684.34;5095506;28;20384;-31
2022/01/05 11:00:41;;;;;;;14.45;6.53;;;;;;;14.59;63.08;95693.25;5095431;28;20074;-31
2022/01/05 11:03:27;;;;;;;13.90;6.00;;;;;;;14.69;62.87;95670.13;5095301;28;20043;-31
2022/01/05 11:06:02;;;;;;;12.38;6.05;;;;;;;14.87;62.02;95669.91;5095344;28;20089;-31
2022/01/05 11:08:30;;;;;;;12.07;5.85;;;;;;;14.72;62.69;95682.81;5094735;28;20024;-31
2022/01/05 11:10:56;;;;;;;11.93;5.63;;;;;;;14.46;63.49;95654.59;5095071;28;20389;-31
2022/01/05 11:13:21;;;;;;;18.85;5.68;;;;;;;14.56;63.15;95705.88;5095130;28;20020;-31
2022/01/05 11:15:46;;;;;;;10.40;5.07;;;;;;;14.69;62.87;95654.50;5095034;28;20043;-31
2022/01/05 11:18:20;;;;;;;11.55;4.63;;;;;;;14.72;62.55;95682.81;5094875;28;20051;-32
2022/01/05 11:20:58;;;;;;;17.45;5.63;;;;;;;14.61;63.02;95671.69;5095177;28;20020;-31
2022/01/05 11:23:25;;;;;;;13.75;5.22;;;;;;;14.78;62.18;95650.16;5093909;28;20123;-31
2022/01/05 11:25:53;;;;;;;11.80;5.05;;;;;;;14.65;62.64;95680.47;5094940;28;20024;-31
2022/01/05 11:28:20;;;;;;;8.55;4.65;;;;;;;14.64;62.53;95638.78;5094625;28;20043;-31
2022/01/05 11:30:48;;;;;;;12.50;4.93;;;;;;;14.69;62.20;95659.94;5094774;28;20057;-31
2022/01/05 11:33:14;;;;;;;8.68;4.60;;;;;;;14.53;62.86;95638.59;5093514;28;20031;-31